createdAt,value
2018-12-07T00:00:32.985Z,76.13
2018-12-07T00:03:01.195Z,86.60
2018-12-07T00:05:29.391Z,79.17
2018-12-07T00:07:57.564Z,87.17
2018-12-07T00:10:25.947Z,74.63
2018-12-07T00:12:54.262Z,74.50
2018-12-07T00:15:22.404Z,70.47
2018-12-07T00:17:50.728Z,70.63
2018-12-07T00:20:19.000Z,68.40
2018-12-07T00:22:47.276Z,73.20
2018-12-07T00:25:16.003Z,71.37
2018-12-07T00:27:44.252Z,66.07
2018-12-07T00:30:12.531Z,67.43
2018-12-07T00:32:40.762Z,61.20
2018-12-07T00:35:09.112Z,57.53
2018-12-07T00:37:37.301Z,52.83
2018-12-07T00:40:06.949Z,59.27
2018-12-07T00:42:35.097Z,53.10
2018-12-07T00:45:03.619Z,49.97
2018-12-07T00:47:38.349Z,48.30
2018-12-07T00:50:06.749Z,48.30
2018-12-07T00:52:35.091Z,41.97
2018-12-07T00:55:03.401Z,44.23
2018-12-07T00:57:31.820Z,39.57
2018-12-07T00:59:59.977Z,38.10
2018-12-07T01:02:28.287Z,38.10
2018-12-07T01:04:56.576Z,41.27
2018-12-07T01:07:24.730Z,34.93
2018-12-07T01:09:52.904Z,37.57
2018-12-07T01:12:21.166Z,38.70
2018-12-07T01:14:49.546Z,37.07
2018-12-07T01:17:17.936Z,36.20
2018-12-07T01:19:46.120Z,36.13
2018-12-07T01:22:14.417Z,29.20
2018-12-07T01:24:42.645Z,30.90
2018-12-07T01:27:10.923Z,31.60
2018-12-07T01:29:39.155Z,33.40
2018-12-07T01:32:07.336Z,31.03
2018-12-07T01:34:35.597Z,31.63
2018-12-07T01:37:03.905Z,30.40
2018-12-07T01:39:32.069Z,33.40
2018-12-07T01:42:00.253Z,33.07
2018-12-07T01:44:28.486Z,29.13
2018-12-07T01:46:56.677Z,25.37
2018-12-07T01:49:24.921Z,25.10
2018-12-07T01:51:53.073Z,22.43
2018-12-07T01:54:21.255Z,22.53
2018-12-07T01:56:49.509Z,18.10
2018-12-07T01:59:17.749Z,18.40
2018-12-07T02:01:45.925Z,19.60
2018-12-07T02:04:15.680Z,18.20
2018-12-07T02:06:43.880Z,16.73
2018-12-07T02:09:12.042Z,19.30
2018-12-07T02:11:40.421Z,16.40
2018-12-07T02:14:08.645Z,16.53
2018-12-07T02:16:36.823Z,18.93
2018-12-07T02:19:05.169Z,17.70
2018-12-07T02:21:33.419Z,16.40
2018-12-07T02:24:02.505Z,12.43
2018-12-07T02:26:30.682Z,13.50
2018-12-07T02:28:58.938Z,13.83
2018-12-07T02:31:27.185Z,12.90
2018-12-07T02:33:56.999Z,15.00
2018-12-07T02:36:25.273Z,13.90
2018-12-07T02:38:54.248Z,12.47
2018-12-07T02:41:23.676Z,14.33
2018-12-07T02:43:51.935Z,12.43
2018-12-07T02:46:20.193Z,11.87
2018-12-07T02:48:48.422Z,12.00
2018-12-07T02:51:16.604Z,13.83
2018-12-07T02:53:44.777Z,11.47
2018-12-07T02:56:12.916Z,12.20
2018-12-07T02:58:41.268Z,11.77
2018-12-07T03:01:10.261Z,11.30
2018-12-07T03:03:38.404Z,11.37
2018-12-07T03:06:06.624Z,15.10
2018-12-07T03:08:34.969Z,14.30
2018-12-07T03:11:03.269Z,13.97
2018-12-07T03:13:31.524Z,13.63
2018-12-07T03:15:59.908Z,12.70
2018-12-07T03:18:31.219Z,13.13
2018-12-07T03:20:59.659Z,12.37
2018-12-07T03:23:27.885Z,15.73
2018-12-07T03:25:56.129Z,13.37
2018-12-07T03:28:25.095Z,12.70
2018-12-07T03:30:53.332Z,13.37
2018-12-07T03:33:21.514Z,13.10
2018-12-07T03:35:49.676Z,13.53
2018-12-07T03:38:17.864Z,11.70
2018-12-07T03:40:46.153Z,13.03
2018-12-07T03:43:14.372Z,12.17
2018-12-07T03:45:42.706Z,13.67
2018-12-07T03:48:10.900Z,12.27
2018-12-07T03:50:39.077Z,12.07
2018-12-07T03:53:07.220Z,12.93
2018-12-07T03:55:35.383Z,13.87
2018-12-07T03:58:03.568Z,11.97
2018-12-07T04:00:31.732Z,10.97
2018-12-07T04:02:59.926Z,12.77
2018-12-07T04:05:28.153Z,14.67
2018-12-07T04:07:56.394Z,12.23
2018-12-07T04:10:24.645Z,11.77
2018-12-07T04:12:52.828Z,12.93
2018-12-07T04:15:21.240Z,12.90
2018-12-07T04:17:49.575Z,11.07
2018-12-07T04:20:17.828Z,11.97
2018-12-07T04:22:45.960Z,12.97
2018-12-07T04:25:14.310Z,11.70
2018-12-07T04:27:42.511Z,11.47
2018-12-07T04:30:25.973Z,13.53
2018-12-07T04:32:54.310Z,12.47
2018-12-07T04:35:23.337Z,12.13
2018-12-07T04:37:51.561Z,11.13
2018-12-07T04:40:19.793Z,11.73
2018-12-07T04:42:48.075Z,9.00
2018-12-07T04:45:16.338Z,12.40
2018-12-07T04:47:44.581Z,12.20
2018-12-07T04:50:13.111Z,10.10
2018-12-07T04:52:42.264Z,9.33
2018-12-07T04:55:10.606Z,9.73
2018-12-07T04:57:39.757Z,10.10
2018-12-07T05:00:08.482Z,11.17
2018-12-07T05:02:36.741Z,8.93
2018-12-07T05:05:05.310Z,10.73
2018-12-07T05:07:33.497Z,9.93
2018-12-07T05:10:01.800Z,10.73
2018-12-07T05:12:30.009Z,11.13
2018-12-07T05:14:58.241Z,13.03
2018-12-07T05:17:26.461Z,10.63
2018-12-07T05:19:54.717Z,12.67
2018-12-07T05:22:22.864Z,12.57
2018-12-07T05:24:51.109Z,12.17
2018-12-07T05:27:19.233Z,14.40
2018-12-07T05:29:47.568Z,13.57
2018-12-07T05:32:15.745Z,14.63
2018-12-07T05:34:43.918Z,13.53
2018-12-07T05:37:13.149Z,17.03
2018-12-07T05:39:41.417Z,17.10
2018-12-07T05:42:09.585Z,16.10
2018-12-07T05:44:38.803Z,16.37
2018-12-07T05:47:07.465Z,18.90
2018-12-07T05:49:35.735Z,20.10
2018-12-07T05:52:04.005Z,19.27
2018-12-07T05:54:32.224Z,21.53
2018-12-07T05:57:00.404Z,17.10
2018-12-07T05:59:28.546Z,19.97
2018-12-07T06:01:56.725Z,20.23
2018-12-07T06:04:24.966Z,19.77
2018-12-07T06:06:53.157Z,22.30
2018-12-07T06:09:21.344Z,24.30
2018-12-07T06:11:49.488Z,25.23
2018-12-07T06:14:36.220Z,26.10
2018-12-07T06:17:04.440Z,24.77
2018-12-07T06:19:32.705Z,26.27
2018-12-07T06:22:00.877Z,27.60
2018-12-07T06:24:29.108Z,24.73
2018-12-07T06:26:57.325Z,25.73
2018-12-07T06:29:25.497Z,25.93
2018-12-07T06:31:53.846Z,31.30
2018-12-07T06:34:22.089Z,27.07
2018-12-07T06:36:50.438Z,30.37
2018-12-07T06:39:18.659Z,32.07
2018-12-07T06:41:46.841Z,32.23
2018-12-07T06:44:15.027Z,35.63
2018-12-07T06:46:43.274Z,33.27
2018-12-07T06:49:12.698Z,33.80
2018-12-07T06:51:42.139Z,33.30
2018-12-07T06:54:10.375Z,36.30
2018-12-07T06:56:38.792Z,33.90
2018-12-07T06:59:06.977Z,37.30
2018-12-07T07:01:35.221Z,35.50
2018-12-07T07:04:03.713Z,35.10
2018-12-07T07:06:32.120Z,32.37
2018-12-07T07:09:00.300Z,36.13
2018-12-07T07:11:28.552Z,35.40
2018-12-07T07:13:56.840Z,39.10
2018-12-07T07:16:25.093Z,36.23
2018-12-07T07:18:53.490Z,34.37
2018-12-07T07:21:21.676Z,41.67
2018-12-07T07:23:50.026Z,44.20
2018-12-07T07:26:18.233Z,40.70
2018-12-07T07:28:46.460Z,36.67
2018-12-07T07:31:14.705Z,33.13
2018-12-07T07:33:43.004Z,32.83
2018-12-07T07:36:11.312Z,30.27
2018-12-07T07:38:39.738Z,27.83
2018-12-07T07:41:08.066Z,28.63
2018-12-07T07:43:36.333Z,24.83
2018-12-07T07:46:04.661Z,23.27
2018-12-07T07:48:39.107Z,22.57
2018-12-07T07:51:07.377Z,21.20
2018-12-07T07:53:35.647Z,20.13
2018-12-07T07:56:03.893Z,20.77
2018-12-07T07:58:32.181Z,19.87
2018-12-07T08:01:00.341Z,20.80
2018-12-07T08:03:28.522Z,22.07
2018-12-07T08:05:56.809Z,23.50
2018-12-07T08:08:25.169Z,19.20
2018-12-07T08:10:53.378Z,22.30
2018-12-07T08:13:21.560Z,23.07
2018-12-07T08:15:49.780Z,18.07
2018-12-07T08:18:17.904Z,21.77
2018-12-07T08:20:46.245Z,21.70
2018-12-07T08:23:14.897Z,19.60
2018-12-07T08:25:43.456Z,16.50
2018-12-07T08:28:11.628Z,18.80
2018-12-07T08:30:40.131Z,16.23
2018-12-07T08:33:08.317Z,16.80
2018-12-07T08:35:36.584Z,17.13
2018-12-07T08:38:04.888Z,17.87
2018-12-07T08:40:33.326Z,14.67
2018-12-07T08:43:01.577Z,15.87
2018-12-07T08:45:29.877Z,12.37
2018-12-07T08:47:58.054Z,13.13
2018-12-07T08:50:26.423Z,15.13
2018-12-07T08:52:54.680Z,14.00
2018-12-07T08:55:22.928Z,13.50
2018-12-07T08:57:51.332Z,14.87
2018-12-07T09:00:19.791Z,15.00
2018-12-07T09:02:48.031Z,13.07
2018-12-07T09:05:16.488Z,14.47
2018-12-07T09:07:44.642Z,19.23
2018-12-07T09:10:13.025Z,14.77
2018-12-07T09:12:42.504Z,15.67
2018-12-07T09:15:10.845Z,14.70
2018-12-07T09:17:39.041Z,15.73
2018-12-07T09:20:08.131Z,16.60
2018-12-07T09:22:36.436Z,16.90
2018-12-07T09:25:05.076Z,15.37
2018-12-07T09:27:33.276Z,17.50
2018-12-07T09:30:01.490Z,15.53
2018-12-07T09:32:29.759Z,15.27
2018-12-07T09:34:58.147Z,13.73
2018-12-07T09:37:26.411Z,17.07
2018-12-07T09:39:54.720Z,14.73
2018-12-07T09:42:22.880Z,16.13
2018-12-07T09:44:51.050Z,13.80
2018-12-07T09:47:19.266Z,14.03
2018-12-07T09:49:47.648Z,13.50
2018-12-07T09:52:15.942Z,12.20
2018-12-07T09:54:44.168Z,12.43
2018-12-07T09:57:12.415Z,12.73
2018-12-07T09:59:40.571Z,12.03
2018-12-07T10:02:08.971Z,13.37
2018-12-07T10:04:37.196Z,10.37
2018-12-07T10:07:05.649Z,11.00
2018-12-07T10:09:33.909Z,10.07
2018-12-07T10:12:02.126Z,9.77
2018-12-07T10:14:30.423Z,8.93
2018-12-07T10:16:58.618Z,7.30
2018-12-07T10:19:26.829Z,8.57
2018-12-07T10:21:55.050Z,5.43
2018-12-07T10:24:23.263Z,5.17
2018-12-07T10:26:51.501Z,4.57
2018-12-07T10:29:19.783Z,4.20
2018-12-07T10:31:47.989Z,2.93
2018-12-07T10:34:16.255Z,3.80
2018-12-07T10:36:44.423Z,3.17
2018-12-07T10:39:12.661Z,2.80
2018-12-07T10:41:40.993Z,3.60
2018-12-07T10:44:09.266Z,4.00
2018-12-07T10:46:37.457Z,1.87
2018-12-07T10:49:05.689Z,3.57
2018-12-07T10:51:33.890Z,2.20
2018-12-07T10:54:02.192Z,2.80
2018-12-07T10:56:30.359Z,3.63
2018-12-07T10:58:58.561Z,2.77
2018-12-07T11:01:32.247Z,3.27
2018-12-07T11:04:05.620Z,2.70
2018-12-07T11:09:18.733Z,2.53
2018-12-07T11:11:52.204Z,1.97
2018-12-07T11:14:25.851Z,2.03
2018-12-07T11:16:59.494Z,1.90
2018-12-07T11:19:32.941Z,2.33
2018-12-07T11:22:06.441Z,1.77
2018-12-07T11:24:39.877Z,2.93
2018-12-07T11:27:13.233Z,3.47
2018-12-07T11:31:49.772Z,2.23
2018-12-07T11:34:22.542Z,4.00
2018-12-07T11:36:50.796Z,4.10
2018-12-07T11:39:19.085Z,2.70
2018-12-07T11:41:47.230Z,2.57
2018-12-07T11:44:15.378Z,3.33
2018-12-07T11:46:44.201Z,4.83
2018-12-07T11:49:12.445Z,2.47
2018-12-07T11:51:40.748Z,4.90
2018-12-07T11:54:08.902Z,3.57
2018-12-07T11:56:37.072Z,3.00
2018-12-07T11:59:05.230Z,3.10
2018-12-07T12:01:33.436Z,2.83
2018-12-07T12:04:01.580Z,3.10
2018-12-07T12:06:29.872Z,2.97
2018-12-07T12:08:58.033Z,4.37
2018-12-07T12:11:26.268Z,4.30
2018-12-07T12:13:54.467Z,3.43
2018-12-07T12:16:22.697Z,5.53
2018-12-07T12:18:50.853Z,3.97
2018-12-07T12:21:19.013Z,3.00
2018-12-07T12:23:53.415Z,4.03
2018-12-07T12:26:17.441Z,2.83
2018-12-07T12:28:45.593Z,4.53
2018-12-07T12:31:13.773Z,3.40
2018-12-07T12:33:41.941Z,2.40
2018-12-07T12:36:16.765Z,3.10
2018-12-07T12:38:40.422Z,2.60
2018-12-07T12:41:08.713Z,3.53
2018-12-07T12:43:36.982Z,3.67
2018-12-07T12:46:05.248Z,3.17
2018-12-07T12:48:33.458Z,4.10
2018-12-07T12:51:01.714Z,3.70
2018-12-07T12:53:30.008Z,2.60
2018-12-07T12:55:58.168Z,2.60
2018-12-07T12:58:26.408Z,2.60
2018-12-07T13:00:54.625Z,3.00
2018-12-07T13:03:22.865Z,3.03
2018-12-07T13:05:51.149Z,2.50
2018-12-07T13:08:19.388Z,3.03
2018-12-07T13:10:47.647Z,4.00
2018-12-07T13:13:15.849Z,5.90
2018-12-07T13:15:44.144Z,5.43
2018-12-07T13:18:12.339Z,5.60
2018-12-07T13:20:40.641Z,5.63
2018-12-07T13:23:08.939Z,6.30
2018-12-07T13:25:37.534Z,7.10
2018-12-07T13:28:05.763Z,7.50
2018-12-07T13:30:33.917Z,7.93
2018-12-07T13:33:02.177Z,8.00
2018-12-07T13:35:30.477Z,9.00
2018-12-07T13:37:58.728Z,10.57
2018-12-07T13:40:27.189Z,10.10
2018-12-07T13:42:55.759Z,9.60
2018-12-07T13:45:24.370Z,11.20
2018-12-07T13:47:52.808Z,11.50
2018-12-07T13:50:26.578Z,10.43
2018-12-07T13:52:55.036Z,12.80
2018-12-07T13:55:23.226Z,10.37
2018-12-07T13:57:51.500Z,10.20
2018-12-07T14:00:19.864Z,9.20
2018-12-07T14:02:48.654Z,9.63
2018-12-07T14:05:17.053Z,9.63
2018-12-07T14:07:45.366Z,9.10
2018-12-07T14:10:13.761Z,10.23
2018-12-07T14:12:42.069Z,10.00
2018-12-07T14:15:10.648Z,11.93
2018-12-07T14:17:39.012Z,10.37
2018-12-07T14:20:08.198Z,11.53
2018-12-07T14:22:36.446Z,12.63
2018-12-07T14:25:05.060Z,10.40
2018-12-07T14:27:33.568Z,10.53
2018-12-07T14:30:01.820Z,12.53
2018-12-07T14:32:30.235Z,11.37
2018-12-07T14:34:58.571Z,11.77
2018-12-07T14:37:26.766Z,11.67
2018-12-07T14:39:55.048Z,12.53
2018-12-07T14:42:23.348Z,10.87
2018-12-07T14:44:51.601Z,13.03
2018-12-07T14:47:20.041Z,13.10
2018-12-07T14:49:48.518Z,12.10
2018-12-07T14:52:16.862Z,12.33
2018-12-07T14:54:45.252Z,13.00
2018-12-07T14:57:13.613Z,13.03
2018-12-07T14:59:41.950Z,15.80
2018-12-07T15:02:10.242Z,17.00
2018-12-07T15:04:38.462Z,16.30
2018-12-07T15:07:06.779Z,17.97
2018-12-07T15:09:35.003Z,15.70
2018-12-07T15:12:03.385Z,13.40
2018-12-07T15:14:31.625Z,14.60
2018-12-07T15:16:59.993Z,12.80
2018-12-07T15:19:28.278Z,13.47
2018-12-07T15:21:56.675Z,13.13
2018-12-07T15:24:25.054Z,12.03
2018-12-07T15:26:53.339Z,13.83
2018-12-07T15:29:21.988Z,12.17
2018-12-07T15:31:50.395Z,12.97
2018-12-07T15:34:19.036Z,12.77
2018-12-07T15:36:49.026Z,14.00
2018-12-07T15:39:17.547Z,13.43
2018-12-07T15:41:45.940Z,17.33
2018-12-07T15:44:14.476Z,16.50
2018-12-07T15:46:43.116Z,19.30
2018-12-07T15:49:11.658Z,17.30
2018-12-07T15:51:39.979Z,19.90
2018-12-07T15:54:08.292Z,20.23
2018-12-07T15:56:36.574Z,22.33
2018-12-07T15:59:04.878Z,22.23
2018-12-07T16:01:33.363Z,23.50
2018-12-07T16:04:01.830Z,22.37
2018-12-07T16:06:30.230Z,21.77
2018-12-07T16:08:58.485Z,24.83
2018-12-07T16:11:26.970Z,24.27
2018-12-07T16:13:55.271Z,25.50
2018-12-07T16:16:23.596Z,31.33
2018-12-07T16:18:51.902Z,28.93
2018-12-07T16:21:20.337Z,32.90
2018-12-07T16:23:48.822Z,31.07
2018-12-07T16:26:17.296Z,28.73
2018-12-07T16:28:45.634Z,29.50
2018-12-07T16:31:13.911Z,32.03
2018-12-07T16:33:42.369Z,29.13
2018-12-07T16:36:10.838Z,27.50
2018-12-07T16:38:39.162Z,27.87
2018-12-07T16:41:07.446Z,30.60
2018-12-07T16:43:35.822Z,28.33
2018-12-07T16:46:04.344Z,30.77
2018-12-07T16:48:32.604Z,30.60
2018-12-07T16:51:00.994Z,33.03
2018-12-07T16:53:31.096Z,33.77
2018-12-07T16:55:59.534Z,32.73
2018-12-07T16:58:27.782Z,34.87
2018-12-07T17:00:56.129Z,30.40
2018-12-07T17:03:24.417Z,30.40
2018-12-07T17:05:52.802Z,26.60
2018-12-07T17:08:21.274Z,29.63
2018-12-07T17:10:49.929Z,27.70
2018-12-07T17:13:18.255Z,23.50
2018-12-07T17:15:46.555Z,25.13
2018-12-07T17:18:14.817Z,27.03
2018-12-07T17:20:43.284Z,23.97
2018-12-07T17:23:12.696Z,21.43
2018-12-07T17:25:41.411Z,19.53
2018-12-07T17:28:09.905Z,21.90
2018-12-07T17:30:38.534Z,20.97
2018-12-07T17:33:07.256Z,19.57
2018-12-07T17:35:35.569Z,18.87
2018-12-07T17:38:03.939Z,19.33
2018-12-07T17:40:32.345Z,17.37
2018-12-07T17:43:00.899Z,17.80
2018-12-07T17:48:22.236Z,16.37
2018-12-07T17:50:50.683Z,16.80
2018-12-07T17:53:18.900Z,15.33
2018-12-07T17:55:47.381Z,13.80
2018-12-07T17:58:15.782Z,12.53
2018-12-07T18:00:44.214Z,13.80
2018-12-07T18:03:12.358Z,11.70
2018-12-07T18:05:40.754Z,11.17
2018-12-07T18:08:09.110Z,10.70
2018-12-07T18:10:37.699Z,10.90
2018-12-07T18:13:06.078Z,10.60
2018-12-07T18:15:34.484Z,11.27
2018-12-07T18:18:02.798Z,10.63
2018-12-07T18:20:31.272Z,13.57
2018-12-07T18:22:59.689Z,10.97
2018-12-07T18:25:28.083Z,12.13
2018-12-07T18:27:56.552Z,9.73
2018-12-07T18:30:25.126Z,9.20
2018-12-07T18:32:53.388Z,10.50
2018-12-07T18:35:22.097Z,8.30
2018-12-07T18:37:50.451Z,10.70
2018-12-07T18:40:18.982Z,10.40
2018-12-07T18:42:47.283Z,10.33
2018-12-07T18:45:15.934Z,11.37
2018-12-07T18:47:44.365Z,11.37
2018-12-07T18:50:12.592Z,12.63
2018-12-07T18:52:41.749Z,9.40
2018-12-07T18:55:10.686Z,9.70
2018-12-07T18:57:39.363Z,8.83
2018-12-07T19:00:08.949Z,7.53
2018-12-07T19:02:37.514Z,7.97
2018-12-07T19:05:06.030Z,7.10
2018-12-07T19:07:34.202Z,6.70
2018-12-07T19:10:02.700Z,7.70
2018-12-07T19:12:31.016Z,8.23
2018-12-07T19:14:59.569Z,8.33
2018-12-07T19:17:28.224Z,6.70
2018-12-07T19:19:56.582Z,8.50
2018-12-07T19:22:25.081Z,6.43
2018-12-07T19:24:53.820Z,6.70
2018-12-07T19:27:22.378Z,7.40
2018-12-07T19:29:51.000Z,7.57
2018-12-07T19:32:19.585Z,6.87
2018-12-07T19:34:49.872Z,7.23
2018-12-07T19:37:18.199Z,7.53
2018-12-07T19:39:46.615Z,8.53
2018-12-07T19:42:15.005Z,6.07
2018-12-07T19:44:43.360Z,6.17
2018-12-07T19:47:11.740Z,6.77
2018-12-07T19:49:40.365Z,6.03
2018-12-07T19:52:09.006Z,6.37
2018-12-07T19:54:37.717Z,7.40
2018-12-07T19:57:06.217Z,6.07
2018-12-07T19:59:34.834Z,5.50
2018-12-07T20:02:04.104Z,5.50
2018-12-07T20:04:32.408Z,6.17
2018-12-07T20:07:00.884Z,6.87
2018-12-07T20:09:29.649Z,5.83
2018-12-07T20:11:58.420Z,6.97
2018-12-07T20:14:26.905Z,6.10
2018-12-07T20:16:55.343Z,6.20
2018-12-07T20:19:23.942Z,4.20
2018-12-07T20:21:52.169Z,6.37
2018-12-07T20:24:20.686Z,2.60
2018-12-07T20:26:49.050Z,2.07
2018-12-07T20:29:17.378Z,2.80
2018-12-07T20:31:45.761Z,1.00
2018-12-07T20:34:14.192Z,3.00
2018-12-07T20:36:42.601Z,3.70
2018-12-07T20:39:11.535Z,2.43
2018-12-07T20:41:39.771Z,2.67
2018-12-07T20:44:08.223Z,3.00
2018-12-07T20:46:36.744Z,4.13
2018-12-07T20:49:05.877Z,3.53
2018-12-07T20:51:34.281Z,4.60
2018-12-07T20:54:02.626Z,4.87
2018-12-07T20:56:31.559Z,7.13
2018-12-07T20:59:00.190Z,7.53
2018-12-07T21:01:28.850Z,5.00
2018-12-07T21:05:06.542Z,8.20
2018-12-07T21:07:50.957Z,5.40
2018-12-07T21:10:57.365Z,8.70
2018-12-07T21:14:34.751Z,7.37
2018-12-07T21:17:17.675Z,9.10
2018-12-07T21:20:48.899Z,9.63
2018-12-07T21:23:17.923Z,8.53
2018-12-07T21:25:52.494Z,4.53
2018-12-07T21:28:21.707Z,12.60
2018-12-07T21:30:55.917Z,8.17
2018-12-07T21:33:34.899Z,9.13
2018-12-07T21:39:02.546Z,10.00
2018-12-07T21:41:31.264Z,9.27
2018-12-07T21:43:59.601Z,7.07
2018-12-07T21:46:28.134Z,7.23
2018-12-07T21:48:56.606Z,9.07
2018-12-07T21:52:37.364Z,9.50
2018-12-07T21:55:06.308Z,9.43
2018-12-07T21:57:34.680Z,7.70
2018-12-07T22:00:03.086Z,13.27
2018-12-07T22:02:31.811Z,9.73
2018-12-07T22:05:00.114Z,13.23
2018-12-07T22:07:28.417Z,11.73
2018-12-07T22:09:56.894Z,9.53
2018-12-07T22:12:25.166Z,7.37
2018-12-07T22:14:53.924Z,13.73
2018-12-07T22:17:22.282Z,5.50
2018-12-07T22:19:50.822Z,9.97
2018-12-07T22:22:19.774Z,9.23
2018-12-07T22:24:48.565Z,12.63
2018-12-07T22:27:16.901Z,7.30
2018-12-07T22:29:45.238Z,11.37
2018-12-07T22:32:14.147Z,11.43
2018-12-07T22:34:42.755Z,12.53
2018-12-07T22:37:11.377Z,8.50
2018-12-07T22:39:39.764Z,9.23
2018-12-07T22:42:08.247Z,8.07
2018-12-07T22:44:37.372Z,10.73
2018-12-07T22:47:06.269Z,10.63
2018-12-07T22:49:34.911Z,12.63
2018-12-07T22:52:03.454Z,12.93
2018-12-07T22:54:31.711Z,9.83
2018-12-07T22:57:00.284Z,10.43
2018-12-07T22:59:28.483Z,9.70
2018-12-07T23:01:57.039Z,13.37
2018-12-07T23:04:26.030Z,10.70
2018-12-07T23:06:54.657Z,6.20
2018-12-07T23:09:22.982Z,10.30
2018-12-07T23:11:51.126Z,12.80
2018-12-07T23:14:19.259Z,9.60
2018-12-07T23:16:54.134Z,9.43
2018-12-07T23:19:22.361Z,7.60
2018-12-07T23:21:50.608Z,10.23
2018-12-07T23:24:19.076Z,11.17
2018-12-07T23:26:47.377Z,13.83
2018-12-07T23:29:21.449Z,11.50
2018-12-07T23:31:49.926Z,6.07
2018-12-07T23:34:18.355Z,13.87
2018-12-07T23:36:46.569Z,12.27
2018-12-07T23:39:14.713Z,11.40
2018-12-07T23:41:42.989Z,12.70
2018-12-07T23:44:11.177Z,12.93
2018-12-07T23:46:39.535Z,9.47
2018-12-07T23:49:07.652Z,16.97
2018-12-07T23:51:35.978Z,9.47
2018-12-07T23:54:04.246Z,14.50
2018-12-07T23:56:32.556Z,12.53
2018-12-07T23:59:00.776Z,16.80
